createdAt,value
2018-02-23T00:02:18.891Z,51.70
2018-02-23T00:07:22.244Z,44.73
2018-02-23T00:12:25.798Z,48.80
2018-02-23T00:17:28.554Z,46.10
2018-02-23T00:22:42.413Z,52.93
2018-02-23T00:27:46.734Z,56.53
2018-02-23T00:32:49.624Z,52.87
2018-02-23T00:37:52.600Z,50.67
2018-02-23T00:42:55.241Z,55.43
2018-02-23T00:47:58.604Z,55.23
2018-02-23T00:53:01.524Z,51.10
2018-02-23T00:58:04.227Z,50.57
2018-02-23T01:03:07.068Z,47.87
2018-02-23T01:08:10.464Z,51.93
2018-02-23T01:13:13.222Z,50.50
2018-02-23T01:18:16.419Z,48.03
2018-02-23T01:23:19.825Z,47.57
2018-02-23T01:28:23.064Z,48.17
2018-02-23T01:33:26.463Z,46.20
2018-02-23T01:38:30.782Z,50.07
2018-02-23T01:43:33.412Z,47.43
2018-02-23T01:48:37.181Z,49.73
2018-02-23T01:53:39.787Z,48.67
2018-02-23T01:58:42.575Z,53.17
2018-02-23T02:03:45.240Z,51.70
2018-02-23T02:08:49.182Z,58.93
2018-02-23T02:13:51.821Z,47.97
2018-02-23T02:18:54.768Z,50.73
2018-02-23T02:23:58.153Z,50.53
2018-02-23T02:29:01.089Z,54.03
2018-02-23T02:34:04.518Z,50.80
2018-02-23T02:39:07.699Z,57.33
2018-02-23T02:44:10.332Z,56.53
2018-02-23T02:49:13.266Z,57.17
2018-02-23T02:54:15.880Z,49.13
2018-02-23T02:59:19.252Z,50.97
2018-02-23T03:04:21.883Z,51.53
2018-02-23T03:09:25.570Z,54.43
2018-02-23T03:14:28.194Z,57.33
2018-02-23T03:19:31.555Z,56.87
2018-02-23T03:24:34.946Z,50.33
2018-02-23T03:29:38.537Z,52.37
2018-02-23T03:34:41.130Z,50.80
2018-02-23T03:39:44.484Z,53.17
2018-02-23T03:44:47.104Z,49.70
2018-02-23T03:49:50.167Z,54.37
2018-02-23T03:54:52.787Z,61.67
2018-02-23T03:59:55.658Z,55.70
2018-02-23T04:04:58.286Z,49.47
2018-02-23T04:10:01.132Z,57.00
2018-02-23T04:15:04.523Z,52.27
2018-02-23T04:20:07.679Z,50.30
2018-02-23T04:25:10.316Z,52.33
2018-02-23T04:30:13.748Z,57.67
2018-02-23T04:35:16.372Z,62.77
2018-02-23T04:40:20.035Z,55.23
2018-02-23T04:45:22.654Z,59.40
2018-02-23T04:50:26.217Z,51.03
2018-02-23T04:55:29.609Z,48.07
2018-02-23T05:00:32.965Z,53.80
2018-02-23T05:05:36.384Z,51.17
2018-02-23T05:10:39.505Z,55.90
2018-02-23T05:15:42.141Z,61.73
2018-02-23T05:20:44.904Z,55.57
2018-02-23T05:25:47.540Z,55.23
2018-02-23T05:30:50.499Z,54.20
2018-02-23T05:35:53.128Z,56.73
2018-02-23T05:40:56.373Z,54.03
2018-02-23T05:45:58.992Z,53.20
2018-02-23T05:51:02.439Z,55.23
2018-02-23T05:56:05.081Z,56.23
2018-02-23T06:01:07.771Z,62.77
2018-02-23T06:06:10.401Z,54.07
2018-02-23T06:11:13.190Z,62.37
2018-02-23T06:16:33.595Z,66.37
2018-02-23T06:21:36.765Z,56.73
2018-02-23T06:26:39.364Z,54.10
2018-02-23T06:31:42.244Z,54.33
2018-02-23T06:36:45.644Z,64.30
2018-02-23T06:41:48.431Z,60.70
2018-02-23T06:47:05.946Z,59.57
2018-02-23T06:52:09.200Z,56.33
2018-02-23T06:57:11.828Z,67.70
2018-02-23T07:02:15.255Z,55.27
2018-02-23T07:07:17.882Z,54.70
2018-02-23T07:12:20.547Z,59.53
2018-02-23T07:17:23.941Z,50.13
2018-02-23T07:22:27.223Z,56.40
2018-02-23T07:27:29.866Z,58.70
2018-02-23T07:32:34.312Z,50.63
2018-02-23T07:37:37.724Z,56.93
2018-02-23T07:42:41.665Z,53.90
2018-02-23T07:47:44.304Z,51.87
2018-02-23T07:52:47.891Z,60.90
2018-02-23T07:57:50.542Z,56.83
2018-02-23T08:02:53.901Z,60.33
2018-02-23T08:07:57.316Z,54.27
2018-02-23T08:13:01.688Z,54.63
2018-02-23T08:18:04.320Z,49.03
2018-02-23T08:23:07.910Z,42.50
2018-02-23T08:28:10.525Z,51.40
2018-02-23T08:33:13.305Z,42.87
2018-02-23T08:38:15.919Z,44.40
2018-02-23T08:43:18.598Z,58.47
2018-02-23T08:48:21.230Z,34.33
2018-02-23T08:53:24.017Z,39.70
2018-02-23T08:58:26.659Z,40.07
2018-02-23T09:03:30.509Z,37.63
2018-02-23T09:08:33.146Z,38.33
2018-02-23T09:13:36.623Z,34.73
2018-02-23T09:18:39.324Z,37.00
2018-02-23T09:23:43.573Z,43.43
2018-02-23T09:28:46.215Z,33.33
2018-02-23T09:34:01.051Z,27.47
2018-02-23T09:39:03.743Z,25.57
2018-02-23T09:44:06.728Z,30.87
2018-02-23T09:49:09.423Z,30.43
2018-02-23T09:54:12.892Z,33.47
2018-02-23T09:59:15.520Z,28.57
2018-02-23T10:04:19.090Z,29.97
2018-02-23T10:09:21.792Z,28.10
2018-02-23T10:14:25.280Z,28.57
2018-02-23T10:19:28.012Z,33.63
2018-02-23T10:24:30.879Z,30.17
2018-02-23T10:29:33.524Z,28.70
2018-02-23T10:34:36.595Z,28.00
2018-02-23T10:39:39.213Z,31.40
2018-02-23T10:44:43.258Z,29.80
2018-02-23T10:49:45.914Z,33.07
2018-02-23T10:54:49.365Z,32.23
2018-02-23T10:59:52.786Z,29.07
2018-02-23T11:04:55.428Z,29.63
2018-02-23T11:09:58.019Z,32.80
2018-02-23T11:15:01.604Z,34.67
2018-02-23T11:20:04.246Z,36.93
2018-02-23T11:25:07.718Z,32.93
2018-02-23T11:30:11.111Z,37.37
2018-02-23T11:35:13.900Z,37.60
2018-02-23T11:40:16.538Z,32.87
2018-02-23T11:45:19.921Z,36.63
2018-02-23T11:50:23.346Z,31.50
2018-02-23T11:55:26.615Z,32.63
2018-02-23T12:00:29.250Z,34.93
2018-02-23T12:05:32.424Z,35.03
2018-02-23T12:10:35.105Z,34.07
2018-02-23T12:15:38.611Z,34.80
2018-02-23T12:20:41.996Z,32.00
2018-02-23T12:25:44.673Z,31.77
2018-02-23T12:30:47.309Z,32.40
2018-02-23T12:35:50.698Z,33.90
2018-02-23T12:40:53.324Z,29.93
2018-02-23T12:45:57.574Z,33.20
2018-02-23T12:51:00.977Z,32.47
2018-02-23T12:56:07.075Z,31.63
2018-02-23T13:01:10.468Z,33.50
2018-02-23T13:06:14.233Z,28.73
2018-02-23T13:11:16.863Z,32.90
2018-02-23T13:16:22.723Z,32.27
2018-02-23T13:21:25.363Z,26.20
2018-02-23T13:26:28.500Z,27.20
2018-02-23T13:31:31.127Z,30.47
2018-02-23T13:36:34.136Z,28.83
2018-02-23T13:41:40.620Z,25.70
2018-02-23T13:46:43.690Z,29.57
2018-02-23T13:51:47.082Z,31.10
2018-02-23T13:56:51.157Z,32.37
2018-02-23T14:01:53.817Z,33.97
2018-02-23T14:07:02.527Z,30.10
2018-02-23T14:12:05.111Z,27.87
2018-02-23T14:17:08.187Z,28.40
2018-02-23T14:22:11.580Z,31.23
2018-02-23T14:27:14.656Z,33.67
2018-02-23T14:32:17.330Z,33.53
2018-02-23T14:37:20.614Z,34.03
2018-02-23T14:42:23.222Z,31.27
2018-02-23T14:47:27.052Z,30.93
2018-02-23T14:52:30.438Z,32.37
2018-02-23T14:57:33.441Z,30.70
2018-02-23T15:02:36.027Z,31.00
2018-02-23T15:07:38.691Z,34.13
2018-02-23T15:12:41.327Z,30.13
2018-02-23T15:17:44.513Z,32.47
2018-02-23T15:22:47.133Z,33.07
2018-02-23T15:27:50.032Z,33.17
2018-02-23T15:32:52.640Z,32.80
2018-02-23T15:37:55.686Z,32.03
2018-02-23T15:42:59.082Z,34.13
2018-02-23T15:48:09.562Z,31.40
2018-02-23T15:53:12.305Z,36.47
2018-02-23T16:03:46.496Z,32.33
2018-02-23T16:08:49.192Z,39.27
2018-02-23T16:13:51.831Z,38.63
2018-02-23T16:18:55.115Z,37.47
2018-02-23T16:23:57.758Z,39.20
2018-02-23T16:29:01.250Z,37.10
2018-02-23T16:34:04.015Z,35.97
2018-02-23T16:39:08.184Z,34.00
2018-02-23T16:44:10.965Z,35.20
2018-02-23T16:49:14.251Z,40.53
2018-02-23T16:54:17.645Z,36.83
2018-02-23T16:59:21.110Z,38.67
2018-02-23T17:04:23.744Z,36.47
2018-02-23T17:09:26.749Z,38.83
2018-02-23T17:14:29.385Z,37.27
2018-02-23T17:19:32.125Z,37.53
2018-02-23T17:24:34.763Z,34.03
2018-02-23T17:29:37.612Z,37.93
2018-02-23T17:34:40.244Z,38.53
2018-02-23T17:39:43.394Z,36.77
2018-02-23T17:44:46.128Z,36.87
2018-02-23T17:49:49.634Z,35.43
2018-02-23T17:54:53.048Z,32.30
2018-02-23T17:59:56.766Z,34.90
2018-02-23T18:05:00.160Z,37.83
2018-02-23T18:10:03.120Z,37.37
2018-02-23T18:15:05.821Z,41.07
2018-02-23T18:20:08.651Z,39.80
2018-02-23T18:25:11.351Z,36.93
2018-02-23T18:30:14.612Z,41.60
2018-02-23T18:35:18.245Z,40.27
2018-02-23T18:40:20.864Z,39.50
2018-02-23T18:45:23.592Z,42.50
2018-02-23T18:50:26.566Z,37.63
2018-02-23T18:55:29.203Z,41.60
2018-02-23T19:00:32.902Z,37.20
2018-02-23T19:05:35.576Z,38.97
2018-02-23T19:10:38.789Z,43.77
2018-02-23T19:15:41.692Z,43.23
2018-02-23T19:20:45.544Z,40.07
2018-02-23T19:25:48.501Z,40.83
2018-02-23T19:30:52.072Z,44.60
2018-02-23T19:35:54.725Z,41.07
2018-02-23T19:40:58.547Z,45.30
2018-02-23T19:46:01.316Z,38.43
2018-02-23T19:51:04.084Z,38.87
2018-02-23T19:56:06.727Z,45.73
2018-02-23T20:01:10.118Z,43.83
2018-02-23T20:06:13.074Z,45.53
2018-02-23T20:11:16.106Z,43.83
2018-02-23T20:16:18.744Z,43.77
2018-02-23T20:21:22.588Z,45.80
2018-02-23T20:26:25.348Z,45.67
2018-02-23T20:31:28.343Z,52.60
2018-02-23T20:36:31.081Z,50.33
2018-02-23T20:41:35.150Z,47.93
2018-02-23T20:46:37.827Z,45.70
2018-02-23T20:51:41.396Z,47.67
2018-02-23T20:56:44.126Z,50.23
2018-02-23T21:01:47.027Z,45.27
2018-02-23T21:06:49.702Z,42.63
2018-02-23T21:11:52.407Z,43.27
2018-02-23T21:16:55.057Z,47.10
2018-02-23T21:21:58.312Z,42.57
2018-02-23T21:27:01.686Z,49.10
2018-02-23T21:32:05.182Z,44.87
2018-02-23T21:37:07.851Z,41.67
2018-02-23T21:42:10.639Z,45.70
2018-02-23T21:47:14.045Z,44.30
2018-02-23T21:52:17.550Z,45.50
2018-02-23T21:57:20.202Z,49.00
2018-02-23T22:02:23.694Z,50.93
2018-02-23T22:07:27.252Z,53.77
2018-02-23T22:12:30.158Z,47.87
2018-02-23T22:17:32.941Z,46.87
2018-02-23T22:22:35.905Z,44.97
2018-02-23T22:27:38.541Z,47.87
2018-02-23T22:32:42.147Z,55.63
2018-02-23T22:37:45.584Z,55.00
2018-02-23T22:42:49.094Z,55.20
2018-02-23T22:47:52.739Z,53.77
2018-02-23T22:52:55.902Z,52.03
2018-02-23T22:57:58.753Z,49.00
2018-02-23T23:03:01.725Z,50.93
2018-02-23T23:08:05.159Z,50.27
2018-02-23T23:13:08.170Z,57.10
2018-02-23T23:18:10.973Z,50.70
2018-02-23T23:23:14.246Z,48.17
2018-02-23T23:28:19.783Z,58.30
2018-02-23T23:33:23.385Z,47.27
2018-02-23T23:38:26.093Z,52.33
2018-02-23T23:43:28.933Z,53.27
2018-02-23T23:48:31.623Z,58.47
2018-02-23T23:53:34.673Z,51.37
2018-02-23T23:58:38.074Z,51.43
